Drummondville, Canada
Current Conditions -  °F | °C
As of 12:00 AM on Monday 20 Oct 2014 (Local Time) from CYRQ Reporting Station
Overcast Overcast  
Wind Chill: 29°   Ceiling: 4800
Heat Index: 36°   Visibility: 9mi
Dew Point: 27°   Wind: 8mph
Humidity: 70%   Direction: 230°SW
Pressure: 29.91"   Gusts: NA
Location:  45.88°N, 72.48°W
Report Text: CYRQ 200400Z AUTO 23007KT 9SM OVC048 02/M03 A2991 RMK SLP131
Loading
Personal Weather Stations






























Interactive Weather Map
Tropical Storm Tracking
New forecast layout! Learn more

10-Day Weather Forecast

Advertisements
Track Severe Weather on mobile